map of RJTK home
RJTK - Airport
Location
City:  Kisarazu, Chiba, Japan
ICAO:RJTK

Details
Type:Airport (Aerodrome, Airfield)
Use:Military
Latitude:35°23'54"N (35.398272)
Longitude:139°54'36"E (139.909936)
Datum:WGS 1984
Elevation:10 ft (3 m)
Variation:7.46°W (WMM2015v2 magnetic declination)
-0.06° annual change
Runways:1
Longest:6004 × 150 ft (1830 × 45.5 m), paved

Time
Time Zone:UTC+9
Local Time:

Weather
METAR:RJTK 040123Z 02007KT 9999 FEW035 SCT045 16/04 Q1006 RMK 1CU035 3SC045 A2973

Related Locations
Nearby:
Farthest:SNPV: 11753 mi / 18915 km
Mostardas [Solidão], RS, BR

Find:

   beyond  
but within

Other Information
Maps:
NOTAMs:
Links:
Sources:

  
  • flag of Japan
  • flag of Chiba
  

Sectional Chart

Flight Planning
at skyvector.com

Satellite Image

Google Maps Satellite view

 

Copyright © 2004-2019 Karl L. Swartz. All rights reserved.
The Great Circle Mapper name and logo are trademarks of the Great Circle Mapper.
All other trademarks mentioned herein belong to their respective owners.
Please see credits for attibutions and further copyright information.

  Follow gcmap on Facebook Follow gcmap on Twitter GCmap on LinkedIn

hCard Microformat

Geo Microformat